Time;durP1;ratioP1;P1;durP2;ratioP2;P2;SDS_P1;SDS_P2;PMS_P1;PMS_P2;Temp;Humidity;BMP_temperature;BMP_pressure;BME280_temperature;BME280_humidity;BME280_pressure;Samples;Min_cycle;Max_cycle;Signal;HPM_P1;HPM_P2
2021/11/17 02:26:06;;;;;;;42.30;18.03;;;-0.70;99.90;;;;;;5123256;27;20583;-69
2021/11/17 02:29:07;;;;;;;39.33;17.90;;;-0.70;99.90;;;;;;5123488;27;20251;-69
2021/11/17 02:32:20;;;;;;;50.33;20.67;;;-0.70;99.90;;;;;;5123419;27;20799;-69
2021/11/17 02:35:24;;;;;;;44.67;18.83;;;-0.80;99.90;;;;;;5110080;28;20240;-69
2021/11/17 02:38:25;;;;;;;54.00;22.63;;;-0.80;99.90;;;;;;5110838;28;20293;-69
2021/11/17 02:41:43;;;;;;;64.60;25.57;;;-0.80;99.90;;;;;;5110843;28;20206;-70
2021/11/17 02:44:45;;;;;;;64.47;26.43;;;-0.80;99.90;;;;;;5016710;28;20224;-69
2021/11/17 02:47:47;;;;;;;63.17;26.23;;;-0.70;99.90;;;;;;5016708;28;20203;-69
2021/11/17 02:51:05;;;;;;;68.67;28.37;;;-0.80;99.90;;;;;;5017351;28;20235;-69
2021/11/17 02:54:07;;;;;;;72.93;27.07;;;-0.80;99.90;;;;;;4997629;28;20221;-70
2021/11/17 02:57:16;;;;;;;71.63;25.63;;;-0.80;99.90;;;;;;4996982;28;20595;-69
2021/11/17 03:00:27;;;;;;;62.90;23.70;;;-0.80;99.90;;;;;;5018174;28;20557;-69
2021/11/17 03:03:42;;;;;;;66.33;22.07;;;-0.80;99.90;;;;;;5015491;28;20270;-69
2021/11/17 03:06:43;;;;;;;107.53;23.07;;;-0.80;99.90;;;;;;5018375;28;20696;-69
2021/11/17 03:09:47;;;;;;;116.80;22.97;;;-0.80;99.90;;;;;;5019002;28;20202;-69
2021/11/17 03:12:53;;;;;;;78.90;21.03;;;-0.70;99.90;;;;;;5019782;28;20193;-69
2021/11/17 03:16:02;;;;;;;126.53;21.77;;;-0.70;99.90;;;;;;5023231;28;20197;-69
2021/11/17 03:19:04;;;;;;;64.43;20.77;;;-0.70;99.90;;;;;;5020121;28;20284;-69
2021/11/17 03:22:16;;;;;;;211.63;21.43;;;-0.70;99.90;;;;;;5087780;28;20220;-69
2021/11/17 03:25:27;;;;;;;63.13;20.50;;;-0.60;99.90;;;;;;5088457;28;20211;-69
2021/11/17 03:28:32;;;;;;;47.97;19.03;;;-0.70;99.90;;;;;;5089205;28;20199;-69
2021/11/17 03:31:36;;;;;;;190.90;20.67;;;-0.60;99.90;;;;;;5090480;28;20207;-69
2021/11/17 03:35:01;;;;;;;40.17;15.13;;;-0.60;99.90;;;;;;5099533;28;20233;-69
2021/11/17 03:38:26;;;;;;;41.60;14.47;;;-0.50;99.90;;;;;;5114737;27;20208;-69
2021/11/17 03:41:30;;;;;;;44.63;14.00;;;-0.50;99.90;;;;;;5118879;27;20203;-70
2021/11/17 03:44:45;;;;;;;30.10;14.03;;;-0.50;99.90;;;;;;5121691;27;20209;-69
2021/11/17 03:47:48;;;;;;;51.03;13.83;;;-0.50;99.90;;;;;;5119472;27;20198;-70
2021/11/17 03:50:49;;;;;;;39.50;14.20;;;-0.50;99.90;;;;;;5119237;27;20275;-69
2021/11/17 03:53:59;;;;;;;46.77;13.63;;;-0.60;99.90;;;;;;5117664;27;20190;-69
2021/11/17 03:57:14;;;;;;;32.90;12.50;;;-0.60;99.90;;;;;;5121140;27;20195;-69
2021/11/17 04:00:19;;;;;;;32.63;12.00;;;-0.60;99.90;;;;;;5119369;27;20195;-70
2021/11/17 04:03:19;;;;;;;29.23;13.10;;;-0.60;99.90;;;;;;5117875;27;20615;-69
2021/11/17 04:06:22;;;;;;;29.17;12.70;;;-0.60;99.90;;;;;;5117443;27;20296;-69
2021/11/17 04:09:31;;;;;;;25.13;12.03;;;-0.60;99.90;;;;;;5116852;27;20225;-70
2021/11/17 04:12:34;;;;;;;23.30;11.83;;;-0.60;99.90;;;;;;5090293;28;20202;-69
2021/11/17 04:15:40;;;;;;;29.80;12.23;;;-0.70;99.90;;;;;;5121263;27;20591;-69
2021/11/17 04:18:40;;;;;;;25.23;12.03;;;-0.70;99.90;;;;;;5116425;27;20613;-70
2021/11/17 04:21:45;;;;;;;33.00;13.87;;;-0.70;99.90;;;;;;5122887;27;20652;-69
2021/11/17 04:24:45;;;;;;;32.60;14.83;;;-0.80;99.90;;;;;;5117976;27;20230;-70
2021/11/17 04:27:52;;;;;;;31.30;14.37;;;-0.80;99.90;;;;;;5112916;27;20191;-69
2021/11/17 04:31:08;;;;;;;34.87;15.73;;;-0.90;99.90;;;;;;5119948;27;20586;-69
2021/11/17 04:34:21;;;;;;;36.27;16.80;;;-0.90;99.90;;;;;;5120676;27;20227;-69
2021/11/17 04:37:33;;;;;;;35.50;15.97;;;-1.00;99.90;;;;;;5120179;27;20199;-70
2021/11/17 04:40:52;;;;;;;36.00;16.30;;;-1.00;99.90;;;;;;5119884;27;20206;-70
2021/11/17 04:44:07;;;;;;;37.50;17.73;;;-1.00;99.90;;;;;;5116787;27;20199;-69
2021/11/17 04:47:16;;;;;;;35.43;17.73;;;-1.10;99.90;;;;;;5120118;27;20218;-69
2021/11/17 04:50:32;;;;;;;38.83;17.87;;;-1.20;99.90;;;;;;5117664;27;20204;-69
2021/11/17 04:53:44;;;;;;;37.57;16.57;;;-1.20;99.90;;;;;;5118407;27;20202;-70
2021/11/17 04:57:03;;;;;;;42.73;18.60;;;-1.30;99.90;;;;;;5114815;27;20206;-69
2021/11/17 05:00:18;;;;;;;56.10;24.83;;;-1.30;99.90;;;;;;5123251;27;20255;-70
2021/11/17 05:03:21;;;;;;;74.20;31.87;;;-1.30;99.90;;;;;;5115693;27;20432;-69
2021/11/17 05:06:23;;;;;;;67.57;28.07;;;-1.30;99.90;;;;;;5112273;27;20255;-69
2021/11/17 05:09:22;;;;;;;72.00;30.97;;;-1.30;99.90;;;;;;5112497;27;20186;-70
2021/11/17 05:12:30;;;;;;;67.93;29.37;;;-1.30;99.90;;;;;;5117835;27;20683;-70
2021/11/17 05:15:31;;;;;;;58.20;26.33;;;-1.40;99.90;;;;;;5111078;27;20574;-70
2021/11/17 05:18:31;;;;;;;58.73;24.50;;;-1.40;99.90;;;;;;5122602;27;20198;-70
2021/11/17 05:21:35;;;;;;;53.93;23.93;;;-1.50;99.90;;;;;;5121928;27;20560;-69
2021/11/17 05:24:47;;;;;;;55.07;24.00;;;-1.50;99.90;;;;;;5121085;27;20201;-69
2021/11/17 05:27:51;;;;;;;56.40;26.40;;;-1.50;99.90;;;;;;5118072;28;20718;-70
2021/11/17 05:31:15;;;;;;;62.50;27.00;;;-1.50;99.90;;;;;;5120515;28;20562;-69
2021/11/17 05:34:31;;;;;;;55.63;25.37;;;-1.60;99.90;;;;;;5122570;28;20302;-69
2021/11/17 05:37:32;;;;;;;71.43;28.70;;;-1.60;99.90;;;;;;5111603;28;20199;-70
2021/11/17 05:44:48;;;;;;;112.67;40.37;;;-1.60;99.90;;;;;;5046469;28;20308;-70
2021/11/17 05:47:47;;;;;;;93.00;35.27;;;-1.70;99.90;;;;;;5055509;28;20212;-69
2021/11/17 05:50:53;;;;;;;107.03;40.03;;;-1.70;99.90;;;;;;5059642;28;20205;-69
2021/11/17 05:53:56;;;;;;;88.87;33.27;;;-1.70;99.90;;;;;;5046926;28;20240;-70
2021/11/17 05:57:05;;;;;;;68.47;28.67;;;-1.70;99.90;;;;;;5050313;28;20205;-69
2021/11/17 06:00:07;;;;;;;69.83;27.80;;;-1.70;99.90;;;;;;5061302;28;20698;-69
2021/11/17 06:03:10;;;;;;;75.83;31.07;;;-1.70;99.90;;;;;;5054017;28;20680;-69
2021/11/17 06:05:57;;;;;;;80.43;33.17;;;-1.70;99.90;;;;;;5057976;28;20219;-70
2021/11/17 06:08:44;;;;;;;79.90;33.07;;;-1.70;99.90;;;;;;5058225;28;20193;-70
2021/11/17 06:11:35;;;;;;;77.60;33.63;;;-1.70;99.90;;;;;;5058779;28;20204;-69
2021/11/17 06:14:24;;;;;;;81.10;32.50;;;-1.60;99.90;;;;;;5060437;28;20216;-70
2021/11/17 06:17:15;;;;;;;76.17;31.23;;;-1.60;99.90;;;;;;5059273;28;20200;-69
2021/11/17 06:20:04;;;;;;;61.27;25.63;;;-1.60;99.90;;;;;;5060003;28;20209;-69
2021/11/17 06:22:53;;;;;;;75.43;30.93;;;-1.60;99.90;;;;;;5125908;27;20190;-70
2021/11/17 06:25:40;;;;;;;74.80;29.60;;;-1.50;99.90;;;;;;5120665;27;20291;-69
2021/11/17 06:28:30;;;;;;;76.07;31.33;;;-1.50;99.90;;;;;;5123506;27;20202;-70
2021/11/17 06:31:18;;;;;;;80.97;31.43;;;-1.50;99.90;;;;;;5125478;27;20195;-69
2021/11/17 06:34:24;;;;;;;99.10;37.07;;;-1.40;99.90;;;;;;5124791;27;20226;-69
2021/11/17 06:37:12;;;;;;;97.80;38.67;;;-1.30;99.90;;;;;;5121543;27;20190;-69
2021/11/17 06:40:00;;;;;;;104.67;38.97;;;-1.30;99.90;;;;;;5123876;27;20205;-69
2021/11/17 06:42:50;;;;;;;79.53;33.77;;;-1.20;99.90;;;;;;5114153;27;20214;-69
2021/11/17 06:45:39;;;;;;;103.13;39.90;;;-1.10;99.90;;;;;;5122048;27;20579;-69
2021/11/17 06:48:29;;;;;;;108.13;43.53;;;-1.00;99.90;;;;;;5122161;27;20569;-70
2021/11/17 06:51:19;;;;;;;109.93;44.20;;;-0.90;99.90;;;;;;5117114;27;20546;-69
2021/11/17 06:54:07;;;;;;;99.50;42.03;;;-0.80;99.90;;;;;;5118680;27;20198;-70
2021/11/17 06:56:54;;;;;;;108.90;41.53;;;-0.80;99.90;;;;;;5116592;27;21087;-69
2021/11/17 06:59:42;;;;;;;84.23;34.93;;;-0.70;99.90;;;;;;5116636;27;20794;-69
2021/11/17 07:02:31;;;;;;;80.67;34.50;;;-0.60;99.90;;;;;;5120049;27;20191;-69
2021/11/17 07:05:18;;;;;;;83.23;34.47;;;-0.50;99.90;;;;;;5120777;27;20563;-69
2021/11/17 07:08:06;;;;;;;82.37;34.47;;;-0.40;99.90;;;;;;5115566;27;20214;-72
2021/11/17 07:10:54;;;;;;;80.27;34.37;;;-0.30;99.90;;;;;;5115032;27;20661;-71
2021/11/17 07:13:41;;;;;;;84.10;35.43;;;-0.30;99.90;;;;;;5118785;27;20601;-72
2021/11/17 07:16:29;;;;;;;80.63;35.27;;;-0.20;99.90;;;;;;5117411;27;20195;-72
2021/11/17 07:19:24;;;;;;;82.13;37.07;;;-0.10;99.90;;;;;;5114025;27;20303;-72
2021/11/17 07:22:11;;;;;;;76.67;35.07;;;-0.10;99.90;;;;;;5114718;27;20673;-71
2021/11/17 07:24:59;;;;;;;76.93;33.00;;;0.00;99.90;;;;;;5120507;27;20343;-71
2021/11/17 07:27:46;;;;;;;74.90;29.97;;;0.10;99.90;;;;;;5119465;27;20207;-72
2021/11/17 07:30:35;;;;;;;67.57;30.57;;;0.20;99.90;;;;;;5118875;27;20582;-71
2021/11/17 07:33:23;;;;;;;72.00;31.17;;;0.40;99.90;;;;;;5118381;27;20245;-72
2021/11/17 07:36:12;;;;;;;70.77;30.40;;;0.50;99.90;;;;;;5120592;27;20258;-71
2021/11/17 07:39:00;;;;;;;71.03;31.07;;;0.60;99.90;;;;;;5117322;27;20199;-71
2021/11/17 07:41:48;;;;;;;73.10;31.90;;;0.70;99.90;;;;;;5119723;27;20234;-71
2021/11/17 07:44:37;;;;;;;77.87;34.03;;;0.70;99.90;;;;;;5122421;27;20206;-71
2021/11/17 07:47:24;;;;;;;75.40;35.20;;;0.80;99.90;;;;;;5121947;27;20270;-72
2021/11/17 07:50:12;;;;;;;73.10;33.60;;;1.00;99.90;;;;;;5116655;27;20199;-72
2021/11/17 07:53:01;;;;;;;68.83;33.00;;;1.10;99.90;;;;;;5117682;27;20202;-72
2021/11/17 07:55:50;;;;;;;72.00;32.33;;;1.40;99.90;;;;;;5111372;27;20235;-72
2021/11/17 07:58:40;;;;;;;65.93;31.10;;;1.70;99.90;;;;;;5119182;27;20191;-71
2021/11/17 08:01:27;;;;;;;70.03;32.90;;;2.00;99.90;;;;;;5120442;27;20195;-72
2021/11/17 08:04:15;;;;;;;68.70;33.57;;;2.40;99.90;;;;;;5116548;27;20277;-73
2021/11/17 08:07:03;;;;;;;66.07;31.50;;;3.00;99.90;;;;;;5118054;27;20807;-72
2021/11/17 08:09:52;;;;;;;69.57;32.07;;;3.40;99.90;;;;;;5117519;27;20199;-72
2021/11/17 08:12:39;;;;;;;61.27;31.33;;;3.80;99.90;;;;;;5118649;27;20194;-72
2021/11/17 08:15:27;;;;;;;66.60;34.17;;;4.10;99.90;;;;;;5115400;27;20207;-71
2021/11/17 08:18:15;;;;;;;67.07;34.13;;;4.40;99.90;;;;;;5115128;27;20285;-71
2021/11/17 08:21:03;;;;;;;79.73;38.37;;;4.50;99.90;;;;;;5117779;27;20236;-71
2021/11/17 08:23:50;;;;;;;69.73;35.20;;;4.70;99.90;;;;;;5116408;27;20194;-72
2021/11/17 08:26:39;;;;;;;72.13;37.37;;;5.10;99.90;;;;;;5119403;27;20218;-73
2021/11/17 08:29:27;;;;;;;71.53;37.53;;;5.30;99.90;;;;;;5119035;27;20202;-71
2021/11/17 08:32:14;;;;;;;70.73;37.53;;;5.60;99.90;;;;;;5119141;27;20218;-72
2021/11/17 08:35:02;;;;;;;66.77;34.67;;;5.80;99.90;;;;;;5116890;27;20953;-72
2021/11/17 08:37:50;;;;;;;76.37;40.27;;;6.00;1.00;;;;;;5116690;27;20575;-71
2021/11/17 08:40:39;;;;;;;77.10;37.83;;;6.40;1.00;;;;;;5118394;27;20204;-71
2021/11/17 08:43:28;;;;;;;72.83;36.73;;;6.60;99.90;;;;;;5118388;27;20580;-71
2021/11/17 08:46:16;;;;;;;73.37;34.23;;;6.80;99.90;;;;;;5116975;27;20560;-71
2021/11/17 08:49:04;;;;;;;71.87;35.87;;;7.20;99.90;;;;;;5113763;27;20663;-71
2021/11/17 08:51:51;;;;;;;70.17;36.93;;;7.40;99.90;;;;;;5115761;27;20563;-71
2021/11/17 08:54:39;;;;;;;67.60;35.10;;;7.70;99.90;;;;;;5114085;27;20642;-72
2021/11/17 08:57:27;;;;;;;61.80;33.63;;;8.00;99.90;;;;;;5112196;27;20201;-71
2021/11/17 09:00:17;;;;;;;43.07;23.77;;;8.40;1.00;;;;;;5120331;27;20204;-71
2021/11/17 09:03:05;;;;;;;54.10;27.63;;;8.90;1.00;;;;;;5113248;27;20267;-72
2021/11/17 09:05:54;;;;;;;49.03;25.43;;;9.20;15.60;;;;;;5115876;27;20203;-71
2021/11/17 09:08:42;;;;;;;50.07;26.20;;;9.60;1.00;;;;;;5118581;27;20191;-71
2021/11/17 09:11:30;;;;;;;41.03;21.70;;;10.00;1.00;;;;;;5116481;27;20953;-71
2021/11/17 09:14:18;;;;;;;36.43;19.57;;;10.30;1.00;;;;;;5119224;27;20206;-71
2021/11/17 09:17:07;;;;;;;44.77;23.37;;;10.60;29.00;;;;;;5120877;27;20289;-70
2021/11/17 09:19:55;;;;;;;44.13;24.50;;;10.80;34.30;;;;;;5111860;27;20657;-71
2021/11/17 09:22:42;;;;;;;42.30;23.20;;;11.10;99.90;;;;;;5114357;27;20202;-72
2021/11/17 09:25:30;;;;;;;32.60;19.27;;;11.50;1.00;;;;;;5110420;28;20200;-71
2021/11/17 09:28:18;;;;;;;35.77;20.23;;;11.90;99.90;;;;;;5117421;28;20219;-70
2021/11/17 09:31:07;;;;;;;38.77;20.23;;;12.00;99.90;;;;;;5122625;28;20213;-70
2021/11/17 09:33:56;;;;;;;35.37;19.70;;;12.00;99.90;;;;;;5119204;28;20233;-72
2021/11/17 09:36:43;;;;;;;37.97;21.13;;;12.00;99.90;;;;;;5112340;28;20585;-71
2021/11/17 09:39:31;;;;;;;37.50;21.17;;;11.80;99.90;;;;;;5115388;28;20198;-70
2021/11/17 09:42:19;;;;;;;34.17;18.83;;;11.80;99.90;;;;;;5114166;28;20234;-70
2021/11/17 09:45:08;;;;;;;35.97;19.70;;;11.70;99.90;;;;;;5117749;28;20321;-70
2021/11/17 09:47:55;;;;;;;35.03;18.93;;;11.50;99.90;;;;;;5122435;27;20223;-71
2021/11/17 09:50:46;;;;;;;27.33;17.00;;;11.00;99.90;;;;;;5116136;27;20218;-71
2021/11/17 09:53:39;;;;;;;38.83;19.30;;;11.00;99.90;;;;;;5116744;27;20236;-72
2021/11/17 09:56:29;;;;;;;35.80;18.63;;;10.80;99.90;;;;;;5119896;27;20203;-70
2021/11/17 09:59:24;;;;;;;40.80;19.67;;;10.70;99.90;;;;;;5121379;27;20251;-71
2021/11/17 10:02:20;;;;;;;38.93;20.90;;;10.40;99.90;;;;;;5115918;27;20210;-70
2021/11/17 10:05:11;;;;;;;40.23;21.80;;;10.20;99.90;;;;;;5114753;27;20228;-70
2021/11/17 10:08:21;;;;;;;40.13;20.67;;;9.90;99.90;;;;;;5119749;27;20222;-70
2021/11/17 10:11:21;;;;;;;35.77;19.33;;;9.50;99.90;;;;;;5119623;27;20257;-71
2021/11/17 10:14:11;;;;;;;34.53;18.17;;;9.50;99.90;;;;;;5119344;27;20191;-71
2021/11/17 10:16:58;;;;;;;37.40;19.40;;;9.60;99.90;;;;;;5123784;27;20198;-70
2021/11/17 10:19:46;;;;;;;34.63;17.90;;;9.60;99.90;;;;;;5122150;27;20199;-70
2021/11/17 10:22:34;;;;;;;38.83;19.10;;;9.40;99.90;;;;;;5127820;27;20198;-70
2021/11/17 10:25:24;;;;;;;35.63;18.77;;;9.30;99.90;;;;;;5112082;27;20229;-70
2021/11/17 10:28:11;;;;;;;44.37;21.50;;;9.10;99.90;;;;;;5118894;27;20212;-70
2021/11/17 10:31:07;;;;;;;39.10;21.40;;;8.80;99.90;;;;;;5116787;27;20283;-70
2021/11/17 10:34:07;;;;;;;42.37;21.13;;;8.80;99.90;;;;;;5116200;27;20726;-70
2021/11/17 10:36:58;;;;;;;33.53;19.30;;;8.70;99.90;;;;;;5121542;27;20187;-72
2021/11/17 10:39:48;;;;;;;26.60;13.27;;;8.70;99.90;;;;;;5120268;27;20203;-70
2021/11/17 10:42:38;;;;;;;30.33;16.47;;;8.60;99.90;;;;;;5115527;27;20197;-70
2021/11/17 10:45:30;;;;;;;32.27;16.33;;;8.50;99.90;;;;;;5119883;27;20749;-70
2021/11/17 10:48:22;;;;;;;31.53;17.70;;;8.60;99.90;;;;;;5122479;27;20241;-70
2021/11/17 10:51:15;;;;;;;31.67;17.70;;;8.20;99.90;;;;;;5111228;27;20207;-70
2021/11/17 10:54:08;;;;;;;28.50;17.63;;;8.10;99.90;;;;;;5116077;27;20290;-71
2021/11/17 10:57:03;;;;;;;36.30;18.27;;;8.00;99.90;;;;;;5115325;27;20248;-70
2021/11/17 10:59:53;;;;;;;31.83;17.23;;;7.80;99.90;;;;;;5114387;27;20194;-70
2021/11/17 11:02:41;;;;;;;34.70;18.67;;;7.50;99.90;;;;;;5116803;27;20564;-70
2021/11/17 11:05:31;;;;;;;37.30;18.57;;;7.30;99.90;;;;;;5120076;27;20198;-70
2021/11/17 11:08:20;;;;;;;33.47;18.87;;;7.10;99.90;;;;;;5121982;27;20217;-70
2021/11/17 11:11:08;;;;;;;35.97;19.53;;;7.10;99.90;;;;;;5110942;27;20239;-70
2021/11/17 11:13:59;;;;;;;37.07;19.43;;;7.00;99.90;;;;;;5120240;27;20200;-70
2021/11/17 11:16:49;;;;;;;37.80;19.43;;;7.00;99.90;;;;;;5111353;27;20205;-70
2021/11/17 11:19:37;;;;;;;38.10;20.10;;;7.10;99.90;;;;;;5115957;27;20668;-70
2021/11/17 11:22:24;;;;;;;40.57;19.97;;;7.00;99.90;;;;;;5121715;27;20533;-70
2021/11/17 11:25:38;;;;;;;42.33;21.87;;;7.00;99.90;;;;;;5113580;27;20231;-70
2021/11/17 11:28:29;;;;;;;44.40;22.50;;;6.90;99.90;;;;;;5117876;27;20691;-70
2021/11/17 11:31:30;;;;;;;41.83;22.00;;;6.90;99.90;;;;;;5117995;27;20227;-70
2021/11/17 11:34:42;;;;;;;45.23;22.53;;;6.90;99.90;;;;;;5112591;27;20243;-70
2021/11/17 11:37:59;;;;;;;45.07;21.83;;;6.90;99.90;;;;;;5116510;27;20256;-70
2021/11/17 11:41:10;;;;;;;43.23;20.30;;;7.00;99.90;;;;;;5112340;27;20203;-71
2021/11/17 11:44:25;;;;;;;38.30;19.87;;;7.00;99.90;;;;;;5113684;27;20328;-70
2021/11/17 11:47:44;;;;;;;43.37;20.30;;;7.00;99.90;;;;;;5107519;27;20229;-70
2021/11/17 11:50:58;;;;;;;38.33;19.93;;;6.90;99.90;;;;;;5122241;27;20215;-70
2021/11/17 11:54:10;;;;;;;40.83;20.70;;;6.90;99.90;;;;;;5118859;27;20204;-70
2021/11/17 11:57:27;;;;;;;44.90;21.93;;;6.90;99.90;;;;;;5109457;27;20222;-70
2021/11/17 12:00:17;;;;;;;42.67;22.47;;;6.80;99.90;;;;;;5116075;27;20680;-72
2021/11/17 12:03:06;;;;;;;46.17;24.07;;;6.80;99.90;;;;;;5120962;27;20207;-71
2021/11/17 12:06:01;;;;;;;51.37;25.63;;;6.80;99.90;;;;;;5119998;27;20200;-70
2021/11/17 12:08:53;;;;;;;49.43;25.87;;;6.70;99.90;;;;;;5113935;27;20211;-70
2021/11/17 12:11:46;;;;;;;51.73;25.23;;;6.70;99.90;;;;;;5117725;27;20277;-70
2021/11/17 12:14:43;;;;;;;48.93;22.53;;;6.60;99.90;;;;;;5120526;27;20286;-70
2021/11/17 12:17:31;;;;;;;46.47;23.07;;;6.60;99.90;;;;;;5120529;27;20210;-70
2021/11/17 12:20:23;;;;;;;50.30;23.73;;;6.50;99.90;;;;;;5119415;27;20291;-70
2021/11/17 12:23:24;;;;;;;48.57;23.60;;;6.40;99.90;;;;;;5114176;27;20321;-70
2021/11/17 12:26:14;;;;;;;50.00;24.60;;;6.40;99.90;;;;;;5117769;27;20206;-70
2021/11/17 12:29:04;;;;;;;53.77;25.37;;;6.40;99.90;;;;;;5118337;27;20717;-70
2021/11/17 12:31:59;;;;;;;53.70;25.70;;;6.40;99.90;;;;;;5117912;27;20213;-70
2021/11/17 12:35:02;;;;;;;55.00;25.80;;;6.30;99.90;;;;;;5113624;27;20285;-71
2021/11/17 12:37:51;;;;;;;54.43;26.20;;;6.30;99.90;;;;;;5115303;27;20216;-70
2021/11/17 12:40:44;;;;;;;63.37;27.60;;;6.30;99.90;;;;;;5116052;27;20196;-69
2021/11/17 12:43:34;;;;;;;58.37;26.23;;;6.20;99.90;;;;;;5123453;27;20204;-70
2021/11/17 12:46:24;;;;;;;55.77;27.57;;;6.10;99.90;;;;;;5117471;27;20211;-70
2021/11/17 12:49:19;;;;;;;56.70;26.10;;;6.10;99.90;;;;;;5112987;27;20310;-71
2021/11/17 12:52:11;;;;;;;57.37;27.40;;;6.10;99.90;;;;;;5114336;27;20200;-71
2021/11/17 12:55:07;;;;;;;56.23;27.30;;;6.10;99.90;;;;;;5119160;27;20598;-70
2021/11/17 12:57:58;;;;;;;57.83;28.83;;;6.10;99.90;;;;;;5113439;27;20272;-70
2021/11/17 13:00:53;;;;;;;65.00;31.97;;;6.10;99.90;;;;;;5123501;27;20251;-71
2021/11/17 13:03:55;;;;;;;77.33;34.60;;;6.10;99.90;;;;;;5118906;27;20282;-69
2021/11/17 13:06:48;;;;;;;65.73;30.17;;;6.10;99.90;;;;;;5113117;27;20193;-70
2021/11/17 13:09:55;;;;;;;66.63;31.03;;;6.10;99.90;;;;;;5120773;27;20194;-70
2021/11/17 13:12:44;;;;;;;64.67;29.87;;;6.10;99.90;;;;;;5114832;27;20203;-70
2021/11/17 13:15:40;;;;;;;61.63;28.90;;;6.10;99.90;;;;;;5103533;27;20665;-70
2021/11/17 13:18:33;;;;;;;51.53;28.20;;;6.10;99.90;;;;;;5113952;28;20699;-70
2021/11/17 13:21:32;;;;;;;54.27;28.07;;;6.10;99.90;;;;;;5117125;27;20204;-70
2021/11/17 13:24:33;;;;;;;56.17;26.33;;;6.10;99.90;;;;;;5109457;27;20214;-70
2021/11/17 13:27:36;;;;;;;59.70;27.20;;;6.10;99.90;;;;;;5111535;28;20205;-70
2021/11/17 13:30:34;;;;;;;59.37;28.37;;;6.10;99.90;;;;;;5116196;28;20207;-70
2021/11/17 13:33:28;;;;;;;55.17;27.27;;;6.10;99.90;;;;;;5114352;28;20320;-70
2021/11/17 13:36:15;;;;;;;49.53;25.17;;;6.10;99.90;;;;;;5119716;28;20211;-70
2021/11/17 13:39:04;;;;;;;52.40;26.00;;;6.10;99.90;;;;;;5118441;28;20196;-69
2021/11/17 13:41:54;;;;;;;50.43;25.30;;;6.20;99.90;;;;;;5111766;28;20779;-70
2021/11/17 13:44:42;;;;;;;48.50;24.87;;;6.20;99.90;;;;;;5115080;28;20202;-70
2021/11/17 13:47:30;;;;;;;56.03;23.60;;;6.20;99.90;;;;;;5116525;28;20197;-70
2021/11/17 13:50:20;;;;;;;45.47;23.30;;;6.20;99.90;;;;;;5117704;28;20198;-70
2021/11/17 13:53:09;;;;;;;50.83;24.53;;;6.30;99.90;;;;;;5108735;28;20205;-70
2021/11/17 13:55:58;;;;;;;51.23;23.23;;;6.20;99.90;;;;;;5111992;28;20643;-70
2021/11/17 13:58:46;;;;;;;54.27;24.93;;;6.20;99.90;;;;;;5116337;28;20618;-69
2021/11/17 14:01:34;;;;;;;51.13;24.97;;;6.20;99.90;;;;;;5116856;28;20198;-70
2021/11/17 14:04:21;;;;;;;50.17;26.00;;;6.20;99.90;;;;;;5120144;28;20204;-70
2021/11/17 14:07:12;;;;;;;53.40;24.53;;;6.20;99.90;;;;;;5120654;28;20281;-71
2021/11/17 14:10:00;;;;;;;50.63;26.33;;;6.10;99.90;;;;;;5115021;28;20193;-69
2021/11/17 14:12:49;;;;;;;51.73;25.47;;;6.10;99.90;;;;;;5112942;28;20203;-70
2021/11/17 14:15:37;;;;;;;49.80;25.50;;;6.10;99.90;;;;;;5112577;28;20196;-70
2021/11/17 14:18:24;;;;;;;51.93;26.13;;;6.10;99.90;;;;;;5115026;28;20194;-70
2021/11/17 14:21:12;;;;;;;57.53;26.03;;;6.00;99.90;;;;;;5117312;28;20574;-70
2021/11/17 14:24:40;;;;;;;54.03;25.80;;;6.10;99.90;;;;;;5113927;28;20288;-70
2021/11/17 14:27:29;;;;;;;54.17;27.53;;;6.10;99.90;;;;;;5110694;28;20257;-70
2021/11/17 14:30:19;;;;;;;59.47;28.43;;;6.00;99.90;;;;;;5122983;28;20663;-70
2021/11/17 14:33:07;;;;;;;56.80;27.60;;;6.00;99.90;;;;;;5117497;28;20232;-69
2021/11/17 14:35:55;;;;;;;58.57;28.17;;;6.00;99.90;;;;;;5122670;27;20604;-69
2021/11/17 14:38:42;;;;;;;59.80;28.67;;;6.00;99.90;;;;;;5117568;27;20274;-70
2021/11/17 14:41:30;;;;;;;63.97;29.07;;;6.00;99.90;;;;;;5118783;27;20203;-70
2021/11/17 14:44:19;;;;;;;64.13;28.03;;;6.00;99.90;;;;;;5119394;27;20675;-70
2021/11/17 14:47:07;;;;;;;62.13;28.80;;;6.00;99.90;;;;;;5122186;27;20251;-70
2021/11/17 14:49:55;;;;;;;63.90;30.03;;;5.90;99.90;;;;;;5117201;27;20256;-69
2021/11/17 14:52:43;;;;;;;69.43;32.87;;;5.90;99.90;;;;;;5121388;27;20586;-70
2021/11/17 14:55:30;;;;;;;70.50;33.07;;;6.00;99.90;;;;;;5114214;27;20222;-70
2021/11/17 14:58:18;;;;;;;73.93;35.63;;;5.90;99.90;;;;;;5122867;27;20288;-71
2021/11/17 15:01:09;;;;;;;77.70;36.30;;;5.90;99.90;;;;;;5118038;27;20199;-70
2021/11/17 15:03:56;;;;;;;65.03;29.80;;;5.90;99.90;;;;;;5117644;27;20196;-71
2021/11/17 15:06:44;;;;;;;75.53;37.03;;;6.00;99.90;;;;;;5119155;27;20707;-70
2021/11/17 15:09:32;;;;;;;80.33;38.63;;;5.90;99.90;;;;;;5110891;27;20637;-71
2021/11/17 15:12:21;;;;;;;63.87;31.67;;;5.90;99.90;;;;;;5117045;27;20651;-71
2021/11/17 15:15:10;;;;;;;53.30;25.13;;;6.00;99.90;;;;;;5116524;27;20203;-70
2021/11/17 15:18:00;;;;;;;67.97;31.10;;;5.90;99.90;;;;;;5112340;27;20581;-71
2021/11/17 15:20:47;;;;;;;81.20;39.23;;;5.90;99.90;;;;;;5117416;27;20214;-71
2021/11/17 15:23:35;;;;;;;63.70;32.03;;;5.90;99.90;;;;;;5119893;27;20571;-71
2021/11/17 15:26:22;;;;;;;68.87;33.90;;;5.90;99.90;;;;;;5124003;27;20231;-71
2021/11/17 15:29:10;;;;;;;59.90;28.10;;;5.90;99.90;;;;;;5114007;27;20227;-72
2021/11/17 15:31:58;;;;;;;49.40;24.23;;;5.90;99.90;;;;;;5116491;27;20208;-71
2021/11/17 15:34:47;;;;;;;60.33;26.97;;;5.80;99.90;;;;;;5119247;27;20389;-70
2021/11/17 15:37:35;;;;;;;73.73;34.50;;;5.90;99.90;;;;;;5117528;27;20190;-70
2021/11/17 15:40:24;;;;;;;62.63;30.23;;;5.80;99.90;;;;;;5116040;27;20711;-70
2021/11/17 15:43:12;;;;;;;68.40;32.27;;;5.80;99.90;;;;;;5114794;27;20559;-70
2021/11/17 15:46:00;;;;;;;77.50;36.03;;;5.80;99.90;;;;;;5113352;27;20213;-69
2021/11/17 15:48:47;;;;;;;72.37;33.70;;;5.80;99.90;;;;;;5116825;27;20238;-69
2021/11/17 15:51:38;;;;;;;63.30;30.50;;;5.80;99.90;;;;;;5116530;27;20544;-69
2021/11/17 15:54:26;;;;;;;83.97;39.47;;;5.70;99.90;;;;;;5115724;27;20636;-70
2021/11/17 15:57:13;;;;;;;77.47;35.70;;;5.80;99.90;;;;;;5115269;27;20210;-70
2021/11/17 16:00:01;;;;;;;74.93;35.43;;;5.70;99.90;;;;;;5117254;27;20192;-69
2021/11/17 16:02:49;;;;;;;86.47;37.83;;;5.70;99.90;;;;;;5121190;27;20201;-69
2021/11/17 16:05:36;;;;;;;84.37;38.10;;;5.70;99.90;;;;;;5121008;27;20208;-69
2021/11/17 16:08:25;;;;;;;75.73;36.27;;;5.70;99.90;;;;;;5118159;27;20227;-70
2021/11/17 16:11:13;;;;;;;65.97;33.67;;;5.80;99.90;;;;;;5119221;27;20612;-70
2021/11/17 16:14:01;;;;;;;84.90;36.10;;;5.80;99.90;;;;;;5114560;27;20194;-70
2021/11/17 16:16:48;;;;;;;68.30;32.73;;;5.70;99.90;;;;;;5111997;27;20201;-69
2021/11/17 16:19:38;;;;;;;74.67;35.30;;;5.70;99.90;;;;;;5119437;27;20678;-69
2021/11/17 16:22:30;;;;;;;78.17;34.57;;;5.70;99.90;;;;;;5114616;27;20204;-69
2021/11/17 16:25:34;;;;;;;82.67;36.63;;;5.70;99.90;;;;;;5117859;27;20672;-69
2021/11/17 16:28:22;;;;;;;71.90;33.80;;;5.70;99.90;;;;;;5115612;27;20184;-69
2021/11/17 16:31:12;;;;;;;74.23;32.53;;;5.70;99.90;;;;;;5119087;27;20810;-69
2021/11/17 16:34:00;;;;;;;64.93;32.20;;;5.70;99.90;;;;;;5118479;27;20310;-69
2021/11/17 16:36:49;;;;;;;75.00;35.40;;;5.60;99.90;;;;;;5090388;28;20207;-69
2021/11/17 16:39:37;;;;;;;85.40;37.33;;;5.70;99.90;;;;;;5093906;28;20277;-68
2021/11/17 16:42:26;;;;;;;82.33;35.40;;;5.70;99.90;;;;;;5092494;28;20211;-70
2021/11/17 16:45:14;;;;;;;71.87;33.97;;;5.70;99.90;;;;;;5090981;28;20204;-69
2021/11/17 16:48:01;;;;;;;63.83;31.53;;;5.70;99.90;;;;;;5094200;28;20193;-69
2021/11/17 16:50:49;;;;;;;71.03;35.87;;;5.60;99.90;;;;;;5092688;28;20201;-69
2021/11/17 16:53:37;;;;;;;84.37;38.13;;;5.70;99.90;;;;;;5098032;28;20212;-69
2021/11/17 16:56:24;;;;;;;84.27;41.10;;;5.60;99.90;;;;;;5092545;28;20788;-69
2021/11/17 16:59:13;;;;;;;82.40;39.30;;;5.60;99.90;;;;;;5095092;28;20927;-69
2021/11/17 17:02:01;;;;;;;71.53;35.30;;;5.60;99.90;;;;;;5109334;27;20215;-69
2021/11/17 17:04:49;;;;;;;62.97;30.30;;;5.60;99.90;;;;;;5118950;27;20225;-70
2021/11/17 17:07:37;;;;;;;83.03;37.83;;;5.60;99.90;;;;;;5117548;27;20278;-69
2021/11/17 17:10:26;;;;;;;109.13;45.73;;;5.60;99.90;;;;;;5118760;27;20250;-69
2021/11/17 17:13:13;;;;;;;71.00;33.03;;;5.60;99.90;;;;;;5111456;27;20195;-69
2021/11/17 17:16:03;;;;;;;80.83;37.27;;;5.60;99.90;;;;;;5097626;28;20290;-69
2021/11/17 17:18:50;;;;;;;84.10;38.23;;;5.50;99.90;;;;;;5095555;28;20326;-69
2021/11/17 17:21:38;;;;;;;88.83;39.07;;;5.50;1.00;;;;;;5095724;28;20208;-69